sensor_id;sensor_type;location;lat;lon;timestamp;temperature;humidity
12481;DHT22;6305;48.398;11.762;2024-01-30T00:01:42;-3.10;99.90
12481;DHT22;6305;48.398;11.762;2024-01-30T00:04:22;-3.10;99.90
12481;DHT22;6305;48.398;11.762;2024-01-30T00:06:59;-3.00;99.90
12481;DHT22;6305;48.398;11.762;2024-01-30T00:09:35;-3.00;99.90
12481;DHT22;6305;48.398;11.762;2024-01-30T00:12:03;-3.10;99.90
12481;DHT22;6305;48.398;11.762;2024-01-30T00:14:35;-3.10;99.90
12481;DHT22;6305;48.398;11.762;2024-01-30T00:17:19;-3.00;99.90
12481;DHT22;6305;48.398;11.762;2024-01-30T00:19:58;-3.00;99.90
12481;DHT22;6305;48.398;11.762;2024-01-30T00:22:29;-3.20;99.90
12481;DHT22;6305;48.398;11.762;2024-01-30T00:25:04;-3.30;99.90
12481;DHT22;6305;48.398;11.762;2024-01-30T00:27:38;-3.40;99.90
12481;DHT22;6305;48.398;11.762;2024-01-30T00:30:20;-3.30;99.90
12481;DHT22;6305;48.398;11.762;2024-01-30T00:33:00;-3.40;99.90
12481;DHT22;6305;48.398;11.762;2024-01-30T00:35:34;-3.40;99.90
12481;DHT22;6305;48.398;11.762;2024-01-30T00:38:05;-3.50;99.90
12481;DHT22;6305;48.398;11.762;2024-01-30T00:40:39;-3.50;99.90
12481;DHT22;6305;48.398;11.762;2024-01-30T00:43:10;-3.40;99.90
12481;DHT22;6305;48.398;11.762;2024-01-30T00:45:59;-3.40;99.90
12481;DHT22;6305;48.398;11.762;2024-01-30T00:48:33;-3.40;99.90
12481;DHT22;6305;48.398;11.762;2024-01-30T00:51:19;-3.40;99.90
12481;DHT22;6305;48.398;11.762;2024-01-30T00:53:47;-3.50;99.90
12481;DHT22;6305;48.398;11.762;2024-01-30T00:56:26;-3.50;99.90
12481;DHT22;6305;48.398;11.762;2024-01-30T00:59:00;-3.50;99.90
12481;DHT22;6305;48.398;11.762;2024-01-30T01:01:29;-3.50;99.90
12481;DHT22;6305;48.398;11.762;2024-01-30T01:04:06;-3.50;99.90
12481;DHT22;6305;48.398;11.762;2024-01-30T01:06:48;-3.60;99.90
12481;DHT22;6305;48.398;11.762;2024-01-30T01:09:25;-3.70;99.90
12481;DHT22;6305;48.398;11.762;2024-01-30T01:11:55;-3.80;99.90
12481;DHT22;6305;48.398;11.762;2024-01-30T01:14:28;-3.80;99.90
12481;DHT22;6305;48.398;11.762;2024-01-30T01:16:58;-3.80;99.90
12481;DHT22;6305;48.398;11.762;2024-01-30T01:19:33;-3.90;99.90
12481;DHT22;6305;48.398;11.762;2024-01-30T01:22:07;-3.90;99.90
12481;DHT22;6305;48.398;11.762;2024-01-30T01:24:41;-3.90;99.90
12481;DHT22;6305;48.398;11.762;2024-01-30T01:27:27;-3.90;99.90
12481;DHT22;6305;48.398;11.762;2024-01-30T01:30:02;-3.90;99.90
12481;DHT22;6305;48.398;11.762;2024-01-30T01:32:37;-4.00;99.90
12481;DHT22;6305;48.398;11.762;2024-01-30T01:35:11;-3.90;99.90
12481;DHT22;6305;48.398;11.762;2024-01-30T01:37:43;-4.00;99.90
12481;DHT22;6305;48.398;11.762;2024-01-30T01:40:25;-4.00;99.90
12481;DHT22;6305;48.398;11.762;2024-01-30T01:43:11;-4.10;99.90
12481;DHT22;6305;48.398;11.762;2024-01-30T01:45:46;-4.10;99.90
12481;DHT22;6305;48.398;11.762;2024-01-30T01:48:33;-4.10;99.90
12481;DHT22;6305;48.398;11.762;2024-01-30T01:51:10;-4.10;99.90
12481;DHT22;6305;48.398;11.762;2024-01-30T01:53:43;-4.00;99.90
12481;DHT22;6305;48.398;11.762;2024-01-30T01:56:18;-3.90;99.90
12481;DHT22;6305;48.398;11.762;2024-01-30T01:58:58;-3.90;99.90
12481;DHT22;6305;48.398;11.762;2024-01-30T02:01:27;-3.90;99.90
12481;DHT22;6305;48.398;11.762;2024-01-30T02:03:56;-4.00;99.90
12481;DHT22;6305;48.398;11.762;2024-01-30T02:06:26;-4.00;99.90
12481;DHT22;6305;48.398;11.762;2024-01-30T02:08:54;-4.10;99.90
12481;DHT22;6305;48.398;11.762;2024-01-30T02:11:25;-4.20;99.90
12481;DHT22;6305;48.398;11.762;2024-01-30T02:13:57;-4.20;99.90
12481;DHT22;6305;48.398;11.762;2024-01-30T02:16:24;-4.20;99.90
12481;DHT22;6305;48.398;11.762;2024-01-30T02:18:56;-4.10;99.90
12481;DHT22;6305;48.398;11.762;2024-01-30T02:21:37;-4.10;99.90
12481;DHT22;6305;48.398;11.762;2024-01-30T02:24:10;-4.10;99.90
12481;DHT22;6305;48.398;11.762;2024-01-30T02:26:40;-4.10;99.90
12481;DHT22;6305;48.398;11.762;2024-01-30T02:29:09;-4.00;99.90
12481;DHT22;6305;48.398;11.762;2024-01-30T02:31:45;-4.00;99.90
12481;DHT22;6305;48.398;11.762;2024-01-30T02:34:21;-3.90;99.90
12481;DHT22;6305;48.398;11.762;2024-01-30T02:37:01;-3.90;99.90
12481;DHT22;6305;48.398;11.762;2024-01-30T02:39:46;-4.00;99.90
12481;DHT22;6305;48.398;11.762;2024-01-30T02:42:21;-4.10;99.90
12481;DHT22;6305;48.398;11.762;2024-01-30T02:45:00;-4.20;99.90
12481;DHT22;6305;48.398;11.762;2024-01-30T02:47:45;-4.30;99.90
12481;DHT22;6305;48.398;11.762;2024-01-30T02:50:14;-4.30;99.90
12481;DHT22;6305;48.398;11.762;2024-01-30T02:52:52;-4.30;99.90
12481;DHT22;6305;48.398;11.762;2024-01-30T02:55:25;-4.30;99.90
12481;DHT22;6305;48.398;11.762;2024-01-30T02:58:28;-4.30;99.90
12481;DHT22;6305;48.398;11.762;2024-01-30T03:01:27;-4.40;99.90
12481;DHT22;6305;48.398;11.762;2024-01-30T03:04:12;-4.30;99.90
12481;DHT22;6305;48.398;11.762;2024-01-30T03:06:51;-4.30;99.90
12481;DHT22;6305;48.398;11.762;2024-01-30T03:09:24;-4.30;99.90
12481;DHT22;6305;48.398;11.762;2024-01-30T03:12:00;-4.30;99.90
12481;DHT22;6305;48.398;11.762;2024-01-30T03:14:37;-4.30;99.90
12481;DHT22;6305;48.398;11.762;2024-01-30T03:17:08;-4.30;99.90
12481;DHT22;6305;48.398;11.762;2024-01-30T03:19:39;-4.30;99.90
12481;DHT22;6305;48.398;11.762;2024-01-30T03:22:11;-4.30;99.90
12481;DHT22;6305;48.398;11.762;2024-01-30T03:24:46;-4.40;99.90
12481;DHT22;6305;48.398;11.762;2024-01-30T03:27:27;-4.30;99.90
12481;DHT22;6305;48.398;11.762;2024-01-30T03:29:57;-4.40;99.90
12481;DHT22;6305;48.398;11.762;2024-01-30T03:32:34;-4.50;99.90
12481;DHT22;6305;48.398;11.762;2024-01-30T03:35:15;-4.40;99.90
12481;DHT22;6305;48.398;11.762;2024-01-30T03:37:50;-4.40;99.90
12481;DHT22;6305;48.398;11.762;2024-01-30T03:40:24;-4.40;99.90
12481;DHT22;6305;48.398;11.762;2024-01-30T03:43:02;-4.50;99.90
12481;DHT22;6305;48.398;11.762;2024-01-30T03:45:35;-4.50;99.90
12481;DHT22;6305;48.398;11.762;2024-01-30T03:48:09;-4.50;99.90
12481;DHT22;6305;48.398;11.762;2024-01-30T03:50:43;-4.40;99.90
12481;DHT22;6305;48.398;11.762;2024-01-30T03:53:28;-4.40;99.90
12481;DHT22;6305;48.398;11.762;2024-01-30T03:56:08;-4.30;99.90
12481;DHT22;6305;48.398;11.762;2024-01-30T03:58:45;-4.30;99.90
12481;DHT22;6305;48.398;11.762;2024-01-30T04:01:37;-4.30;99.90
12481;DHT22;6305;48.398;11.762;2024-01-30T04:04:22;-4.30;99.90
12481;DHT22;6305;48.398;11.762;2024-01-30T04:06:54;-4.40;99.90
12481;DHT22;6305;48.398;11.762;2024-01-30T04:09:33;-4.50;99.90
12481;DHT22;6305;48.398;11.762;2024-01-30T04:12:06;-4.50;99.90
12481;DHT22;6305;48.398;11.762;2024-01-30T04:14:51;-4.50;99.90
12481;DHT22;6305;48.398;11.762;2024-01-30T04:17:32;-4.50;99.90
12481;DHT22;6305;48.398;11.762;2024-01-30T04:20:05;-4.60;99.90
12481;DHT22;6305;48.398;11.762;2024-01-30T04:22:38;-4.60;99.90
12481;DHT22;6305;48.398;11.762;2024-01-30T04:25:16;-4.70;99.90
12481;DHT22;6305;48.398;11.762;2024-01-30T04:27:48;-4.80;99.90
12481;DHT22;6305;48.398;11.762;2024-01-30T04:30:20;-4.80;99.90
12481;DHT22;6305;48.398;11.762;2024-01-30T04:32:54;-4.90;99.90
12481;DHT22;6305;48.398;11.762;2024-01-30T04:35:28;-4.90;99.90
12481;DHT22;6305;48.398;11.762;2024-01-30T04:38:11;-4.90;99.90
12481;DHT22;6305;48.398;11.762;2024-01-30T04:40:45;-4.80;99.90
12481;DHT22;6305;48.398;11.762;2024-01-30T04:43:22;-4.90;99.90
12481;DHT22;6305;48.398;11.762;2024-01-30T04:45:51;-4.90;99.90
12481;DHT22;6305;48.398;11.762;2024-01-30T04:48:28;-4.90;99.90
12481;DHT22;6305;48.398;11.762;2024-01-30T04:50:58;-4.90;99.90
12481;DHT22;6305;48.398;11.762;2024-01-30T04:53:32;-4.90;99.90
12481;DHT22;6305;48.398;11.762;2024-01-30T04:56:06;-5.00;99.90
12481;DHT22;6305;48.398;11.762;2024-01-30T04:58:40;-5.00;99.90
12481;DHT22;6305;48.398;11.762;2024-01-30T05:01:14;-5.00;99.90
12481;DHT22;6305;48.398;11.762;2024-01-30T05:03:52;-5.00;99.90
12481;DHT22;6305;48.398;11.762;2024-01-30T05:06:27;-5.10;99.90
12481;DHT22;6305;48.398;11.762;2024-01-30T05:09:16;-5.00;99.90
12481;DHT22;6305;48.398;11.762;2024-01-30T05:11:57;-5.00;99.90
12481;DHT22;6305;48.398;11.762;2024-01-30T05:14:29;-5.00;99.90
12481;DHT22;6305;48.398;11.762;2024-01-30T05:17:02;-5.00;99.90
12481;DHT22;6305;48.398;11.762;2024-01-30T05:19:42;-5.00;99.90
12481;DHT22;6305;48.398;11.762;2024-01-30T05:23:05;-4.90;99.90
12481;DHT22;6305;48.398;11.762;2024-01-30T05:25:59;-5.00;99.90
12481;DHT22;6305;48.398;11.762;2024-01-30T05:28:56;-5.00;99.90
12481;DHT22;6305;48.398;11.762;2024-01-30T05:31:34;-5.00;99.90
12481;DHT22;6305;48.398;11.762;2024-01-30T05:34:10;-5.10;99.90
12481;DHT22;6305;48.398;11.762;2024-01-30T05:36:52;-5.10;99.90
12481;DHT22;6305;48.398;11.762;2024-01-30T05:39:29;-5.00;99.90
12481;DHT22;6305;48.398;11.762;2024-01-30T05:42:09;-5.00;99.90
12481;DHT22;6305;48.398;11.762;2024-01-30T05:44:52;-5.10;99.90
12481;DHT22;6305;48.398;11.762;2024-01-30T05:47:24;-5.10;99.90
12481;DHT22;6305;48.398;11.762;2024-01-30T05:49:57;-5.00;99.90
12481;DHT22;6305;48.398;11.762;2024-01-30T05:52:28;-5.10;99.90
12481;DHT22;6305;48.398;11.762;2024-01-30T05:55:11;-5.00;99.90
12481;DHT22;6305;48.398;11.762;2024-01-30T05:57:44;-4.90;99.90
12481;DHT22;6305;48.398;11.762;2024-01-30T06:00:27;-4.90;99.90
12481;DHT22;6305;48.398;11.762;2024-01-30T06:03:01;-5.00;99.90
12481;DHT22;6305;48.398;11.762;2024-01-30T06:05:28;-4.90;99.90
12481;DHT22;6305;48.398;11.762;2024-01-30T06:07:59;-4.90;99.90
12481;DHT22;6305;48.398;11.762;2024-01-30T06:10:34;-4.90;99.90
12481;DHT22;6305;48.398;11.762;2024-01-30T06:13:12;-4.90;99.90
12481;DHT22;6305;48.398;11.762;2024-01-30T06:15:46;-4.90;99.90
12481;DHT22;6305;48.398;11.762;2024-01-30T06:18:24;-5.00;99.90
12481;DHT22;6305;48.398;11.762;2024-01-30T06:20:55;-5.00;99.90
12481;DHT22;6305;48.398;11.762;2024-01-30T06:23:30;-5.10;99.90
12481;DHT22;6305;48.398;11.762;2024-01-30T06:26:08;-5.10;99.90
12481;DHT22;6305;48.398;11.762;2024-01-30T06:28:53;-5.10;99.90
12481;DHT22;6305;48.398;11.762;2024-01-30T06:31:29;-5.10;99.90
12481;DHT22;6305;48.398;11.762;2024-01-30T06:34:12;-5.00;99.90
12481;DHT22;6305;48.398;11.762;2024-01-30T06:36:43;-4.90;99.90
12481;DHT22;6305;48.398;11.762;2024-01-30T06:39:18;-4.80;99.90
12481;DHT22;6305;48.398;11.762;2024-01-30T06:41:56;-4.90;99.90
12481;DHT22;6305;48.398;11.762;2024-01-30T06:44:30;-4.90;99.90
12481;DHT22;6305;48.398;11.762;2024-01-30T06:46:59;-4.90;99.90
12481;DHT22;6305;48.398;11.762;2024-01-30T06:49:33;-4.90;99.90
12481;DHT22;6305;48.398;11.762;2024-01-30T06:52:07;-4.80;99.90
12481;DHT22;6305;48.398;11.762;2024-01-30T06:54:42;-4.80;99.90
12481;DHT22;6305;48.398;11.762;2024-01-30T06:57:15;-4.70;99.90
12481;DHT22;6305;48.398;11.762;2024-01-30T06:59:49;-4.60;99.90
12481;DHT22;6305;48.398;11.762;2024-01-30T07:02:26;-4.40;99.90
12481;DHT22;6305;48.398;11.762;2024-01-30T07:05:07;-4.40;99.90
12481;DHT22;6305;48.398;11.762;2024-01-30T07:07:41;-4.30;99.90
12481;DHT22;6305;48.398;11.762;2024-01-30T07:10:21;-4.30;99.90
12481;DHT22;6305;48.398;11.762;2024-01-30T07:12:51;-4.20;99.90
12481;DHT22;6305;48.398;11.762;2024-01-30T07:15:26;-4.10;99.90
12481;DHT22;6305;48.398;11.762;2024-01-30T07:18:05;-3.80;99.90
12481;DHT22;6305;48.398;11.762;2024-01-30T07:20:43;-3.50;99.90
12481;DHT22;6305;48.398;11.762;2024-01-30T07:23:24;-3.20;99.90
12481;DHT22;6305;48.398;11.762;2024-01-30T07:25:55;-2.90;99.90
12481;DHT22;6305;48.398;11.762;2024-01-30T07:28:28;-2.60;99.90
12481;DHT22;6305;48.398;11.762;2024-01-30T07:31:03;-2.30;99.90
12481;DHT22;6305;48.398;11.762;2024-01-30T07:33:38;-2.30;99.90
12481;DHT22;6305;48.398;11.762;2024-01-30T07:36:17;-1.80;99.90
12481;DHT22;6305;48.398;11.762;2024-01-30T07:39:00;-1.50;99.90
12481;DHT22;6305;48.398;11.762;2024-01-30T07:41:32;-1.30;99.90
12481;DHT22;6305;48.398;11.762;2024-01-30T07:44:12;-1.00;99.90
12481;DHT22;6305;48.398;11.762;2024-01-30T07:46:46;-0.80;99.90
12481;DHT22;6305;48.398;11.762;2024-01-30T07:49:25;-0.40;99.90
12481;DHT22;6305;48.398;11.762;2024-01-30T07:52:04;0.00;99.90
12481;DHT22;6305;48.398;11.762;2024-01-30T07:54:38;0.30;99.90
12481;DHT22;6305;48.398;11.762;2024-01-30T07:57:11;0.40;99.90
12481;DHT22;6305;48.398;11.762;2024-01-30T07:59:41;0.70;99.90
12481;DHT22;6305;48.398;11.762;2024-01-30T08:02:17;1.20;99.90
12481;DHT22;6305;48.398;11.762;2024-01-30T08:04:51;1.80;99.90
12481;DHT22;6305;48.398;11.762;2024-01-30T08:07:25;2.60;99.90
12481;DHT22;6305;48.398;11.762;2024-01-30T08:09:58;3.40;99.90
12481;DHT22;6305;48.398;11.762;2024-01-30T08:12:28;4.00;99.90
12481;DHT22;6305;48.398;11.762;2024-01-30T08:15:05;4.80;99.90
12481;DHT22;6305;48.398;11.762;2024-01-30T08:17:46;5.70;99.90
12481;DHT22;6305;48.398;11.762;2024-01-30T08:20:21;6.70;99.90
12481;DHT22;6305;48.398;11.762;2024-01-30T08:22:53;8.00;99.90
12481;DHT22;6305;48.398;11.762;2024-01-30T08:25:22;9.20;99.90
12481;DHT22;6305;48.398;11.762;2024-01-30T08:27:57;9.80;99.90
12481;DHT22;6305;48.398;11.762;2024-01-30T08:30:35;10.60;99.90
12481;DHT22;6305;48.398;11.762;2024-01-30T08:33:06;11.40;99.90
12481;DHT22;6305;48.398;11.762;2024-01-30T08:35:39;12.20;99.90
12481;DHT22;6305;48.398;11.762;2024-01-30T08:38:15;13.00;99.90
12481;DHT22;6305;48.398;11.762;2024-01-30T08:40:45;13.90;99.90
12481;DHT22;6305;48.398;11.762;2024-01-30T08:43:14;14.50;99.90
12481;DHT22;6305;48.398;11.762;2024-01-30T08:45:45;14.80;99.90
12481;DHT22;6305;48.398;11.762;2024-01-30T08:48:24;15.70;99.90
12481;DHT22;6305;48.398;11.762;2024-01-30T08:50:57;16.00;99.90
12481;DHT22;6305;48.398;11.762;2024-01-30T08:53:50;16.00;99.90
12481;DHT22;6305;48.398;11.762;2024-01-30T08:56:31;16.20;94.70
12481;DHT22;6305;48.398;11.762;2024-01-30T08:59:16;16.30;79.00
12481;DHT22;6305;48.398;11.762;2024-01-30T09:01:57;17.00;72.50
12481;DHT22;6305;48.398;11.762;2024-01-30T09:04:33;17.50;65.20
12481;DHT22;6305;48.398;11.762;2024-01-30T09:07:05;18.00;59.50
12481;DHT22;6305;48.398;11.762;2024-01-30T09:09:48;18.50;57.30
12481;DHT22;6305;48.398;11.762;2024-01-30T09:12:19;19.10;56.00
12481;DHT22;6305;48.398;11.762;2024-01-30T09:14:51;19.70;54.00
12481;DHT22;6305;48.398;11.762;2024-01-30T09:17:21;20.30;51.20
12481;DHT22;6305;48.398;11.762;2024-01-30T09:19:58;20.30;48.40
12481;DHT22;6305;48.398;11.762;2024-01-30T09:22:26;20.40;47.70
12481;DHT22;6305;48.398;11.762;2024-01-30T09:25:12;20.50;46.50
12481;DHT22;6305;48.398;11.762;2024-01-30T09:27:47;20.30;45.00
12481;DHT22;6305;48.398;11.762;2024-01-30T09:30:14;20.40;45.60
12481;DHT22;6305;48.398;11.762;2024-01-30T09:32:47;20.50;45.60
12481;DHT22;6305;48.398;11.762;2024-01-30T09:35:24;20.80;45.30
12481;DHT22;6305;48.398;11.762;2024-01-30T09:37:54;20.20;44.00
12481;DHT22;6305;48.398;11.762;2024-01-30T09:40:29;19.90;43.70
12481;DHT22;6305;48.398;11.762;2024-01-30T09:43:13;19.70;45.10
12481;DHT22;6305;48.398;11.762;2024-01-30T09:45:53;19.60;44.90
12481;DHT22;6305;48.398;11.762;2024-01-30T09:48:30;19.90;45.00
12481;DHT22;6305;48.398;11.762;2024-01-30T09:50:58;20.90;45.30
12481;DHT22;6305;48.398;11.762;2024-01-30T09:53:31;22.00;43.80
12481;DHT22;6305;48.398;11.762;2024-01-30T09:56:14;22.40;42.00
12481;DHT22;6305;48.398;11.762;2024-01-30T09:58:50;22.70;41.40
12481;DHT22;6305;48.398;11.762;2024-01-30T10:01:24;23.40;40.40
12481;DHT22;6305;48.398;11.762;2024-01-30T10:04:10;24.10;40.30
12481;DHT22;6305;48.398;11.762;2024-01-30T10:07:03;24.20;39.10
12481;DHT22;6305;48.398;11.762;2024-01-30T10:12:41;24.70;38.00
12481;DHT22;6305;48.398;11.762;2024-01-30T10:15:17;25.00;38.00
12481;DHT22;6305;48.398;11.762;2024-01-30T10:18:02;25.10;37.10
12481;DHT22;6305;48.398;11.762;2024-01-30T10:20:40;25.40;36.60
12481;DHT22;6305;48.398;11.762;2024-01-30T10:23:15;25.20;35.90
12481;DHT22;6305;48.398;11.762;2024-01-30T10:25:48;24.80;35.40
12481;DHT22;6305;48.398;11.762;2024-01-30T10:28:35;24.50;36.80
12481;DHT22;6305;48.398;11.762;2024-01-30T10:31:07;24.20;35.00
12481;DHT22;6305;48.398;11.762;2024-01-30T10:33:54;23.50;35.10
12481;DHT22;6305;48.398;11.762;2024-01-30T10:36:26;22.70;35.10
12481;DHT22;6305;48.398;11.762;2024-01-30T10:39:07;22.60;36.60
12481;DHT22;6305;48.398;11.762;2024-01-30T10:41:43;22.70;36.10
12481;DHT22;6305;48.398;11.762;2024-01-30T10:44:21;23.40;35.70
12481;DHT22;6305;48.398;11.762;2024-01-30T10:47:43;23.90;35.20
12481;DHT22;6305;48.398;11.762;2024-01-30T10:50:22;24.30;35.30
12481;DHT22;6305;48.398;11.762;2024-01-30T10:52:56;24.50;34.50
12481;DHT22;6305;48.398;11.762;2024-01-30T10:55:37;24.80;34.80
12481;DHT22;6305;48.398;11.762;2024-01-30T10:58:14;25.00;34.40
12481;DHT22;6305;48.398;11.762;2024-01-30T11:00:53;25.60;34.40
12481;DHT22;6305;48.398;11.762;2024-01-30T11:03:29;25.90;33.10
12481;DHT22;6305;48.398;11.762;2024-01-30T11:06:01;25.90;32.70
12481;DHT22;6305;48.398;11.762;2024-01-30T11:08:42;26.20;32.90
12481;DHT22;6305;48.398;11.762;2024-01-30T11:11:16;26.40;33.00
12481;DHT22;6305;48.398;11.762;2024-01-30T11:13:44;27.00;32.80
12481;DHT22;6305;48.398;11.762;2024-01-30T11:16:14;27.40;30.90
12481;DHT22;6305;48.398;11.762;2024-01-30T11:18:41;27.10;30.60
12481;DHT22;6305;48.398;11.762;2024-01-30T11:21:08;27.20;30.60
12481;DHT22;6305;48.398;11.762;2024-01-30T11:23:35;27.00;30.20
12481;DHT22;6305;48.398;11.762;2024-01-30T11:26:04;26.80;30.10
12481;DHT22;6305;48.398;11.762;2024-01-30T11:28:33;26.60;30.70
12481;DHT22;6305;48.398;11.762;2024-01-30T11:31:04;27.30;30.80
12481;DHT22;6305;48.398;11.762;2024-01-30T11:33:34;27.70;29.70
12481;DHT22;6305;48.398;11.762;2024-01-30T11:36:01;28.00;30.00
12481;DHT22;6305;48.398;11.762;2024-01-30T11:38:29;27.90;29.40
12481;DHT22;6305;48.398;11.762;2024-01-30T11:40:56;26.90;29.30
12481;DHT22;6305;48.398;11.762;2024-01-30T11:43:23;24.00;30.50
12481;DHT22;6305;48.398;11.762;2024-01-30T11:45:51;21.60;33.00
12481;DHT22;6305;48.398;11.762;2024-01-30T11:48:18;20.40;35.80
12481;DHT22;6305;48.398;11.762;2024-01-30T11:50:46;21.20;37.50
12481;DHT22;6305;48.398;11.762;2024-01-30T11:53:16;23.20;36.30
12481;DHT22;6305;48.398;11.762;2024-01-30T11:55:49;24.90;33.80
12481;DHT22;6305;48.398;11.762;2024-01-30T11:58:17;24.60;31.90
12481;DHT22;6305;48.398;11.762;2024-01-30T12:00:53;23.70;32.70
12481;DHT22;6305;48.398;11.762;2024-01-30T12:03:21;23.90;34.10
12481;DHT22;6305;48.398;11.762;2024-01-30T12:05:56;24.70;33.30
12481;DHT22;6305;48.398;11.762;2024-01-30T12:08:23;25.90;32.70
12481;DHT22;6305;48.398;11.762;2024-01-30T12:10:56;26.80;31.60
12481;DHT22;6305;48.398;11.762;2024-01-30T12:13:24;27.50;30.90
12481;DHT22;6305;48.398;11.762;2024-01-30T12:15:51;27.80;30.40
12481;DHT22;6305;48.398;11.762;2024-01-30T12:18:19;28.20;29.00
12481;DHT22;6305;48.398;11.762;2024-01-30T12:20:58;27.80;28.20
12481;DHT22;6305;48.398;11.762;2024-01-30T12:23:26;25.90;28.60
12481;DHT22;6305;48.398;11.762;2024-01-30T12:25:53;25.10;29.90
12481;DHT22;6305;48.398;11.762;2024-01-30T12:28:21;24.60;30.70
12481;DHT22;6305;48.398;11.762;2024-01-30T12:30:48;24.90;31.50
12481;DHT22;6305;48.398;11.762;2024-01-30T12:33:17;24.90;30.30
12481;DHT22;6305;48.398;11.762;2024-01-30T12:35:47;24.50;30.10
12481;DHT22;6305;48.398;11.762;2024-01-30T12:38:19;24.90;30.40
12481;DHT22;6305;48.398;11.762;2024-01-30T12:40:46;24.50;29.70
12481;DHT22;6305;48.398;11.762;2024-01-30T12:43:13;23.70;30.10
12481;DHT22;6305;48.398;11.762;2024-01-30T12:45:41;22.70;30.30
12481;DHT22;6305;48.398;11.762;2024-01-30T12:48:09;22.00;32.20
12481;DHT22;6305;48.398;11.762;2024-01-30T12:50:36;21.60;33.40
12481;DHT22;6305;48.398;11.762;2024-01-30T12:53:03;20.80;33.60
12481;DHT22;6305;48.398;11.762;2024-01-30T12:55:34;19.90;34.90
12481;DHT22;6305;48.398;11.762;2024-01-30T12:58:01;18.80;36.30
12481;DHT22;6305;48.398;11.762;2024-01-30T13:00:28;18.30;37.80
12481;DHT22;6305;48.398;11.762;2024-01-30T13:02:55;17.80;39.20
12481;DHT22;6305;48.398;11.762;2024-01-30T13:05:22;18.00;40.00
12481;DHT22;6305;48.398;11.762;2024-01-30T13:07:50;18.10;39.40
12481;DHT22;6305;48.398;11.762;2024-01-30T13:10:23;18.20;39.60
12481;DHT22;6305;48.398;11.762;2024-01-30T13:12:52;18.40;39.40
12481;DHT22;6305;48.398;11.762;2024-01-30T13:15:19;18.50;39.30
12481;DHT22;6305;48.398;11.762;2024-01-30T13:17:46;18.90;39.60
12481;DHT22;6305;48.398;11.762;2024-01-30T13:20:14;19.20;39.70
12481;DHT22;6305;48.398;11.762;2024-01-30T13:22:43;19.20;39.80
12481;DHT22;6305;48.398;11.762;2024-01-30T13:25:10;19.10;39.90
12481;DHT22;6305;48.398;11.762;2024-01-30T13:27:37;19.00;41.30
12481;DHT22;6305;48.398;11.762;2024-01-30T13:30:07;19.10;42.00
12481;DHT22;6305;48.398;11.762;2024-01-30T13:32:34;18.90;42.20
12481;DHT22;6305;48.398;11.762;2024-01-30T13:35:01;18.90;43.10
12481;DHT22;6305;48.398;11.762;2024-01-30T13:37:29;19.50;43.70
12481;DHT22;6305;48.398;11.762;2024-01-30T13:39:56;20.40;42.70
12481;DHT22;6305;48.398;11.762;2024-01-30T13:42:23;21.40;41.80
12481;DHT22;6305;48.398;11.762;2024-01-30T13:44:50;22.00;40.70
12481;DHT22;6305;48.398;11.762;2024-01-30T13:47:18;22.50;40.00
12481;DHT22;6305;48.398;11.762;2024-01-30T13:49:47;22.80;40.00
12481;DHT22;6305;48.398;11.762;2024-01-30T13:52:14;23.10;39.80
12481;DHT22;6305;48.398;11.762;2024-01-30T13:54:41;23.30;39.20
12481;DHT22;6305;48.398;11.762;2024-01-30T13:57:08;23.30;38.70
12481;DHT22;6305;48.398;11.762;2024-01-30T13:59:35;22.90;38.90
12481;DHT22;6305;48.398;11.762;2024-01-30T14:02:02;22.70;38.80
12481;DHT22;6305;48.398;11.762;2024-01-30T14:04:31;22.10;38.50
12481;DHT22;6305;48.398;11.762;2024-01-30T14:06:58;21.50;39.50
12481;DHT22;6305;48.398;11.762;2024-01-30T14:09:25;21.10;40.20
12481;DHT22;6305;48.398;11.762;2024-01-30T14:11:52;21.10;40.70
12481;DHT22;6305;48.398;11.762;2024-01-30T14:14:19;20.50;40.80
12481;DHT22;6305;48.398;11.762;2024-01-30T14:16:45;19.80;41.80
12481;DHT22;6305;48.398;11.762;2024-01-30T14:19:12;19.20;42.60
12481;DHT22;6305;48.398;11.762;2024-01-30T14:21:41;18.90;43.80
12481;DHT22;6305;48.398;11.762;2024-01-30T14:24:08;18.60;43.90
12481;DHT22;6305;48.398;11.762;2024-01-30T14:26:35;18.00;43.80
12481;DHT22;6305;48.398;11.762;2024-01-30T14:29:03;17.40;45.00
12481;DHT22;6305;48.398;11.762;2024-01-30T14:31:30;16.80;46.30
12481;DHT22;6305;48.398;11.762;2024-01-30T14:33:57;16.20;47.30
12481;DHT22;6305;48.398;11.762;2024-01-30T14:36:25;15.70;48.80
12481;DHT22;6305;48.398;11.762;2024-01-30T14:38:55;15.10;49.80
12481;DHT22;6305;48.398;11.762;2024-01-30T14:41:22;14.30;51.20
12481;DHT22;6305;48.398;11.762;2024-01-30T14:43:49;13.60;52.80
12481;DHT22;6305;48.398;11.762;2024-01-30T14:46:16;12.90;54.40
12481;DHT22;6305;48.398;11.762;2024-01-30T14:48:43;12.30;56.20
12481;DHT22;6305;48.398;11.762;2024-01-30T14:51:10;11.90;58.20
12481;DHT22;6305;48.398;11.762;2024-01-30T14:53:37;11.50;60.20
12481;DHT22;6305;48.398;11.762;2024-01-30T14:56:06;11.10;63.00
12481;DHT22;6305;48.398;11.762;2024-01-30T14:58:33;10.90;66.10
12481;DHT22;6305;48.398;11.762;2024-01-30T15:01:00;10.70;70.00
12481;DHT22;6305;48.398;11.762;2024-01-30T15:03:27;10.60;73.70
12481;DHT22;6305;48.398;11.762;2024-01-30T15:05:55;10.50;77.20
12481;DHT22;6305;48.398;11.762;2024-01-30T15:08:22;10.40;80.80
12481;DHT22;6305;48.398;11.762;2024-01-30T15:10:49;10.30;83.80
12481;DHT22;6305;48.398;11.762;2024-01-30T15:13:18;10.20;86.70
12481;DHT22;6305;48.398;11.762;2024-01-30T15:15:45;10.00;90.00
12481;DHT22;6305;48.398;11.762;2024-01-30T15:18:12;9.80;91.70
12481;DHT22;6305;48.398;11.762;2024-01-30T15:20:39;9.50;93.10
12481;DHT22;6305;48.398;11.762;2024-01-30T15:23:05;9.30;95.10
12481;DHT22;6305;48.398;11.762;2024-01-30T15:25:32;9.10;97.50
12481;DHT22;6305;48.398;11.762;2024-01-30T15:28:00;8.90;99.30
12481;DHT22;6305;48.398;11.762;2024-01-30T15:30:29;8.70;99.90
12481;DHT22;6305;48.398;11.762;2024-01-30T15:32:56;8.50;99.90
12481;DHT22;6305;48.398;11.762;2024-01-30T15:35:23;8.20;99.90
12481;DHT22;6305;48.398;11.762;2024-01-30T15:37:50;8.00;99.90
12481;DHT22;6305;48.398;11.762;2024-01-30T15:40:17;7.70;99.90
12481;DHT22;6305;48.398;11.762;2024-01-30T15:42:45;7.50;99.90
12481;DHT22;6305;48.398;11.762;2024-01-30T15:45:12;7.20;99.90
12481;DHT22;6305;48.398;11.762;2024-01-30T15:47:40;7.00;99.90
12481;DHT22;6305;48.398;11.762;2024-01-30T15:50:07;6.80;99.90
12481;DHT22;6305;48.398;11.762;2024-01-30T15:52:35;6.60;99.90
12481;DHT22;6305;48.398;11.762;2024-01-30T15:55:02;6.40;99.90
12481;DHT22;6305;48.398;11.762;2024-01-30T15:57:29;6.10;99.90
12481;DHT22;6305;48.398;11.762;2024-01-30T15:59:57;5.90;99.90
12481;DHT22;6305;48.398;11.762;2024-01-30T16:02:24;5.70;99.90
12481;DHT22;6305;48.398;11.762;2024-01-30T16:04:53;5.50;99.90
12481;DHT22;6305;48.398;11.762;2024-01-30T16:07:20;5.30;99.90
12481;DHT22;6305;48.398;11.762;2024-01-30T16:09:46;5.10;99.90
12481;DHT22;6305;48.398;11.762;2024-01-30T16:12:13;5.00;99.90
12481;DHT22;6305;48.398;11.762;2024-01-30T16:15:06;4.80;99.90
12481;DHT22;6305;48.398;11.762;2024-01-30T16:17:54;4.60;99.90